Glencoe, OK

10:37 AM CDT on September 02, 2014 (GMT -0500)
Stillwater, East Side | Change Station
CLOSE
Current Station
Personal Weather Station
Location: Stillwater, OK
Elevation: 935 ft
Nearby Weather Stations
Active Advisory: Areal Flood Advisory

Elev 935 ft 36.12 °N, 97.04 °W | Updated 0 second ago

Overcast
Overcast
69.2 °F
Feels Like 69.2 °F
N
3.2
Wind Variable Wind from ESE
Gusts 4.6 mph

Today
High -- | Low -- °F
--% Chance of Precip.
Yesterday
High -- | Low -- °F
Precip. -- in
7:00 AM 7:54 PM
First Quarter, 52% visible
Pressure 29.93 in
Visibility 10.0 miles
Clouds Overcast 10000 ft
Dew Point 67 °F
Humidity 94%
Rainfall 1.15 in
Snow Depth Not available.
UV 0.6 out of 12
Pollen 9.10 out of 12
Air Quality Not available.
Flu Activity Not available.
METAR KSWO 021453Z 16010KT 10SM OVC100 21/19 A2997 RMK AO2 RAB03E43 SLP134 P0025 60115 T02060194 53003

More Conditions Fewer Conditions

Pressure 29.93 in
Visibility 10.0 miles
Clouds Overcast 10000 ft
Dew Point 67 °F
Humidity 94%
Rainfall 1.15 in
Snow Depth Not available.
UV 0.6 out of 12
Pollen 9.10 out of 12
Air Quality Not available.
Flu Activity Not available.
METAR KSWO 021453Z 16010KT 10SM OVC100 21/19 A2997 RMK AO2 RAB03E43 SLP134 P0025 60115 T02060194 53003

More Conditions Fewer Conditions

10-Day Weather Forecast

Almanac

Astronomy

Sep. 02, 2014 Rise Set
Actual Time 7:00 AM CDT 7:54 PM CDT
Civil Twilight 6:33 AM CDT 8:20 PM CDT
Nautical Twilight 6:02 AM CDT 8:51 PM CDT
Astronomical Twilight 5:30 AM CDT 9:23 PM CDT
Moon 2:33 PM CDT 12:09 AM CDT
Length of Visible Light 13h 46m
Length of Day
12h 53m
Tomorrow will be 2m 13s shorter.
First Quarter, 52% of the Moon is Illuminated
Today
First Quarter
Sep 8
Full
Sep 15
Last Quarter
Sep 24
New
Oct 1
First Quarter

Today's Extremes

State Highs State Lows

Community

WunderPhotos

Upload Photos

1,749,700 photos uploaded!

Nearby

Snow Depth

Station Depth Elevation
No new snow has been reported.

Earthquake Activity

City Distance Mag. Time & Date
Helena, Oklahoma 81 miles 3.2 3:05 AM CDT
2014-09-02
Medford, Oklahoma 64 miles 3.3 11:58 PM CDT
2014-09-01
Perry, Oklahoma 26 miles 3.1 6:46 AM CDT
2014-09-01
Jones, Oklahoma 47 miles 3.1 1:49 PM CDT
2014-08-31
Minimum magnitude displayed is 2.5.

Coastal Water Temperatures

Place Temperature
No Stations Reporting

Nearby Weather Stations